createdAt,value
2018-11-02T00:00:38.768Z,99.23
2018-11-02T00:01:38.765Z,99.32
2018-11-02T00:02:38.757Z,99.04
2018-11-02T00:03:38.745Z,99.23
2018-11-02T00:04:38.737Z,99.23
2018-11-02T00:05:38.734Z,99.42
2018-11-02T00:06:38.727Z,99.23
2018-11-02T00:07:38.722Z,98.94
2018-11-02T00:08:38.762Z,99.04
2018-11-02T00:09:38.701Z,98.75
2018-11-02T00:10:38.691Z,99.04
2018-11-02T00:11:38.684Z,98.75
2018-11-02T00:12:38.675Z,98.56
2018-11-02T00:13:38.672Z,98.47
2018-11-02T00:14:38.665Z,98.18
2018-11-02T00:15:38.660Z,98.08
2018-11-02T00:16:38.650Z,98.27
2018-11-02T00:17:38.636Z,98.27
2018-11-02T00:18:38.628Z,97.89
2018-11-02T00:19:38.626Z,98.18
2018-11-02T00:20:38.619Z,98.27
2018-11-02T00:21:38.608Z,98.47
2018-11-02T00:22:38.597Z,98.27
2018-11-02T00:23:38.591Z,98.27
2018-11-02T00:24:38.583Z,97.51
2018-11-02T00:25:38.609Z,97.51
2018-11-02T00:26:38.572Z,97.80
2018-11-02T00:27:38.612Z,97.61
2018-11-02T00:28:38.556Z,98.08
2018-11-02T00:29:38.547Z,97.71
2018-11-02T00:30:38.535Z,97.42
2018-11-02T00:31:38.561Z,97.71
2018-11-02T00:32:38.533Z,97.22
2018-11-02T00:33:38.518Z,96.94
2018-11-02T00:34:38.512Z,97.13
2018-11-02T00:35:38.499Z,97.32
2018-11-02T00:36:38.492Z,97.71
2018-11-02T00:37:38.488Z,96.46
2018-11-02T00:38:38.481Z,97.03
2018-11-02T00:39:38.471Z,97.51
2018-11-02T00:40:38.464Z,96.46
2018-11-02T00:41:38.451Z,96.56
2018-11-02T00:42:38.448Z,97.03
2018-11-02T00:43:38.437Z,96.84
2018-11-02T00:44:38.431Z,96.46
2018-11-02T00:45:38.426Z,96.94
2018-11-02T00:46:38.418Z,96.56
2018-11-02T00:47:38.438Z,96.46
2018-11-02T00:48:38.421Z,97.03
2018-11-02T00:49:38.393Z,96.84
2018-11-02T00:50:38.383Z,96.46
2018-11-02T00:51:38.379Z,97.51
2018-11-02T00:52:38.374Z,96.84
2018-11-02T00:53:38.359Z,97.51
2018-11-02T00:54:38.353Z,97.71
2018-11-02T00:55:38.347Z,97.61
2018-11-02T00:56:38.338Z,96.84
2018-11-02T00:57:38.334Z,97.13
2018-11-02T00:58:38.327Z,97.13
2018-11-02T00:59:38.319Z,96.66
2018-11-02T01:00:38.311Z,96.56
2018-11-02T01:01:38.299Z,97.22
2018-11-02T01:02:38.291Z,97.13
2018-11-02T01:03:38.284Z,96.84
2018-11-02T01:04:38.556Z,97.22
2018-11-02T01:05:38.926Z,96.66
2018-11-02T01:06:38.264Z,97.03
2018-11-02T01:07:38.253Z,97.13
2018-11-02T01:08:38.245Z,96.66
2018-11-02T01:09:38.241Z,97.03
2018-11-02T01:10:38.234Z,96.75
2018-11-02T01:11:38.227Z,97.61
2018-11-02T01:12:38.219Z,97.46
2018-11-02T01:13:38.205Z,97.51
2018-11-02T01:14:38.199Z,97.46
2018-11-02T01:15:38.190Z,97.32
2018-11-02T01:16:38.308Z,97.32
2018-11-02T01:17:38.207Z,97.32
2018-11-02T01:18:38.172Z,97.61
2018-11-02T01:19:38.164Z,97.71
2018-11-02T01:20:38.156Z,98.03
2018-11-02T01:21:38.143Z,97.94
2018-11-02T01:22:38.135Z,97.85
2018-11-02T01:23:38.132Z,98.37
2018-11-02T01:24:38.125Z,97.89
2018-11-02T01:25:38.112Z,97.89
2018-11-02T01:26:38.104Z,98.27
2018-11-02T01:27:38.098Z,98.56
2018-11-02T01:28:38.090Z,98.47
2018-11-02T01:29:38.086Z,98.51
2018-11-02T01:30:38.082Z,98.18
2018-11-02T01:31:38.071Z,98.42
2018-11-02T01:32:38.064Z,98.56
2018-11-02T01:33:38.049Z,98.27
2018-11-02T01:34:38.044Z,97.56
2018-11-02T01:35:38.036Z,97.66
2018-11-02T01:36:38.028Z,97.71
2018-11-02T01:37:38.023Z,97.51
2018-11-02T01:38:38.016Z,97.61
2018-11-02T01:39:38.004Z,97.66
2018-11-02T01:40:37.996Z,97.46
2018-11-02T01:41:37.993Z,96.98
2018-11-02T01:42:37.985Z,97.71
2018-11-02T01:43:37.979Z,97.27
2018-11-02T01:44:37.971Z,97.46
2018-11-02T01:45:37.957Z,97.46
2018-11-02T01:46:37.951Z,97.71
2018-11-02T01:47:37.943Z,97.32
2018-11-02T01:48:37.936Z,96.66
2018-11-02T01:49:37.932Z,97.32
2018-11-02T01:50:37.924Z,97.42
2018-11-02T01:51:37.917Z,96.75
2018-11-02T01:52:37.912Z,96.56
2018-11-02T01:53:37.896Z,96.66
2018-11-02T01:54:37.889Z,96.75
2018-11-02T01:55:37.887Z,96.46
2018-11-02T01:56:37.880Z,96.84
2018-11-02T01:57:37.867Z,96.37
2018-11-02T01:58:37.860Z,96.75
2018-11-02T01:59:37.901Z,96.75
2018-11-02T02:00:37.866Z,96.46
2018-11-02T02:01:37.840Z,96.08
2018-11-02T02:02:37.859Z,95.61
2018-11-02T02:03:37.827Z,95.89
2018-11-02T02:04:37.818Z,95.98
2018-11-02T02:05:37.809Z,95.89
2018-11-02T02:06:37.798Z,96.27
2018-11-02T02:07:37.792Z,96.17
2018-11-02T02:08:37.801Z,96.17
2018-11-02T02:09:37.781Z,95.70
2018-11-02T02:10:37.773Z,96.08
2018-11-02T02:11:37.762Z,96.08
2018-11-02T02:12:37.754Z,95.70
2018-11-02T02:13:37.782Z,95.22
2018-11-02T02:14:37.745Z,95.61
2018-11-02T02:15:37.735Z,95.98
2018-11-02T02:16:37.728Z,95.70
2018-11-02T02:17:37.715Z,95.89
2018-11-02T02:18:37.709Z,96.08
2018-11-02T02:19:37.709Z,95.70
2018-11-02T02:20:37.695Z,96.08
2018-11-02T02:21:37.691Z,96.08
2018-11-02T02:22:37.683Z,96.08
2018-11-02T02:23:37.677Z,95.51
2018-11-02T02:24:37.669Z,96.27
2018-11-02T02:25:37.657Z,96.17
2018-11-02T02:26:37.653Z,96.08
2018-11-02T02:27:37.654Z,95.79
2018-11-02T02:28:37.639Z,95.70
2018-11-02T02:29:37.635Z,96.17
2018-11-02T02:30:37.618Z,96.08
2018-11-02T02:31:37.620Z,95.89
2018-11-02T02:32:37.604Z,95.70
2018-11-02T02:33:37.603Z,96.08
2018-11-02T02:34:37.592Z,95.70
2018-11-02T02:35:37.586Z,95.98
2018-11-02T02:36:37.581Z,95.89
2018-11-02T02:37:37.566Z,96.08
2018-11-02T02:38:37.559Z,96.27
2018-11-02T02:39:37.552Z,95.79
2018-11-02T02:40:37.544Z,96.27
2018-11-02T02:41:37.541Z,96.17
2018-11-02T02:42:37.534Z,96.27
2018-11-02T02:43:37.521Z,95.98
2018-11-02T02:44:37.514Z,96.08
2018-11-02T02:45:37.535Z,96.17
2018-11-02T02:46:37.507Z,95.79
2018-11-02T02:47:37.496Z,95.41
2018-11-02T02:48:37.491Z,95.61
2018-11-02T02:49:37.476Z,95.70
2018-11-02T02:50:37.472Z,95.12
2018-11-02T02:51:37.462Z,95.41
2018-11-02T02:52:37.453Z,95.17
2018-11-02T02:53:37.451Z,95.41
2018-11-02T02:54:37.442Z,95.51
2018-11-02T02:55:37.438Z,94.93
2018-11-02T02:56:37.431Z,95.51
2018-11-02T02:57:37.417Z,95.37
2018-11-02T02:58:37.408Z,95.51
2018-11-02T02:59:37.407Z,95.03
2018-11-02T03:00:37.400Z,95.32
2018-11-02T03:01:37.386Z,95.12
2018-11-02T03:02:37.379Z,95.27
2018-11-02T03:03:37.374Z,95.46
2018-11-02T03:04:37.418Z,95.51
2018-11-02T03:05:37.361Z,95.61
2018-11-02T03:06:37.354Z,95.32
2018-11-02T03:07:37.401Z,95.37
2018-11-02T03:08:37.338Z,95.56
2018-11-02T03:09:37.326Z,95.46
2018-11-02T03:10:37.488Z,95.75
2018-11-02T03:11:37.311Z,95.08
2018-11-02T03:12:37.304Z,95.37
2018-11-02T03:13:37.300Z,95.65
2018-11-02T03:14:37.293Z,95.56
2018-11-02T03:15:37.280Z,95.65
2018-11-02T03:16:37.275Z,95.56
2018-11-02T03:17:37.270Z,95.70
2018-11-02T03:18:37.333Z,95.17
2018-11-02T03:19:37.254Z,95.46
2018-11-02T03:20:37.247Z,94.98
2018-11-02T03:21:37.243Z,95.46
2018-11-02T03:22:37.316Z,95.08
2018-11-02T03:23:37.219Z,94.89
2018-11-02T03:24:37.212Z,95.08
2018-11-02T03:25:37.225Z,95.46
2018-11-02T03:26:37.201Z,95.08
2018-11-02T03:27:37.209Z,94.89
2018-11-02T03:28:37.189Z,95.56
2018-11-02T03:29:37.174Z,95.46
2018-11-02T03:30:37.168Z,95.46
2018-11-02T03:31:37.165Z,94.79
2018-11-02T03:32:37.158Z,95.27
2018-11-02T03:33:37.144Z,95.08
2018-11-02T03:34:37.136Z,94.98
2018-11-02T03:35:37.128Z,95.65
2018-11-02T03:36:37.122Z,95.46
2018-11-02T03:37:37.117Z,95.37
2018-11-02T03:38:37.112Z,95.56
2018-11-02T03:39:37.103Z,95.08
2018-11-02T03:40:37.095Z,95.37
2018-11-02T03:41:37.082Z,95.27
2018-11-02T03:42:37.075Z,94.89
2018-11-02T03:43:37.068Z,95.27
2018-11-02T03:44:37.060Z,95.17
2018-11-02T03:45:37.057Z,95.08
2018-11-02T03:46:37.050Z,94.89
2018-11-02T03:47:37.037Z,95.17
2018-11-02T03:48:37.030Z,95.27
2018-11-02T03:49:37.026Z,94.98
2018-11-02T03:50:37.018Z,95.37
2018-11-02T03:51:37.011Z,95.08
2018-11-02T03:52:37.003Z,95.27
2018-11-02T03:53:36.993Z,95.17
2018-11-02T03:54:36.983Z,95.27
2018-11-02T03:55:36.978Z,95.37
2018-11-02T03:56:37.034Z,94.79
2018-11-02T03:57:36.966Z,94.70
2018-11-02T03:58:36.958Z,94.79
2018-11-02T03:59:36.950Z,94.79
2018-11-02T04:00:36.942Z,94.89
2018-11-02T04:01:36.930Z,94.60
2018-11-02T04:02:36.922Z,94.70
2018-11-02T04:03:36.919Z,94.79
2018-11-02T04:04:36.911Z,94.89
2018-11-02T04:05:36.899Z,94.70
2018-11-02T04:06:36.891Z,94.89
2018-11-02T04:07:36.884Z,95.37
2018-11-02T04:08:36.878Z,94.79
2018-11-02T04:09:36.892Z,94.79
2018-11-02T04:10:36.867Z,94.79
2018-11-02T04:11:36.858Z,94.60
2018-11-02T04:12:36.858Z,94.79
2018-11-02T04:13:36.839Z,94.70
2018-11-02T04:14:36.833Z,95.37
2018-11-02T04:15:36.826Z,94.41
2018-11-02T04:16:36.821Z,94.22
2018-11-02T04:17:36.814Z,94.60
2018-11-02T04:18:36.804Z,94.22
2018-11-02T04:19:36.792Z,94.60
2018-11-02T04:20:36.791Z,94.41
2018-11-02T04:21:36.780Z,94.32
2018-11-02T04:22:36.780Z,94.12
2018-11-02T04:23:36.768Z,94.60
2018-11-02T04:24:36.760Z,94.22
2018-11-02T04:25:36.746Z,94.51
2018-11-02T04:26:36.741Z,94.60
2018-11-02T04:27:36.732Z,94.03
2018-11-02T04:28:36.724Z,94.03
2018-11-02T04:29:36.721Z,93.65
2018-11-02T04:30:36.725Z,93.93
2018-11-02T04:31:36.706Z,94.22
2018-11-02T04:32:36.709Z,94.32
2018-11-02T04:33:36.685Z,94.22
2018-11-02T04:34:36.681Z,94.41
2018-11-02T04:35:36.676Z,94.51
2018-11-02T04:36:36.668Z,94.32
2018-11-02T04:37:36.655Z,94.22
2018-11-02T04:38:36.649Z,94.03
2018-11-02T04:39:36.640Z,94.22
2018-11-02T04:40:36.638Z,94.12
2018-11-02T04:41:36.633Z,94.12
2018-11-02T04:42:36.622Z,93.74
2018-11-02T04:43:36.615Z,94.51
2018-11-02T04:44:36.607Z,94.41
2018-11-02T04:45:36.602Z,94.41
2018-11-02T04:46:36.590Z,94.22
2018-11-02T04:47:36.578Z,94.41
2018-11-02T04:48:36.570Z,94.41
2018-11-02T04:49:36.567Z,94.41
2018-11-02T04:50:36.559Z,94.32
2018-11-02T04:51:36.548Z,94.51
2018-11-02T04:52:36.540Z,94.22
2018-11-02T04:53:36.536Z,93.74
2018-11-02T04:54:36.535Z,94.03
2018-11-02T04:55:36.522Z,94.51
2018-11-02T04:56:36.515Z,94.32
2018-11-02T04:57:36.506Z,94.37
2018-11-02T04:58:36.493Z,94.46
2018-11-02T04:59:36.485Z,94.65
2018-11-02T05:00:36.479Z,94.65
2018-11-02T05:01:36.473Z,94.56
2018-11-02T05:02:36.471Z,94.65
2018-11-02T05:03:36.459Z,95.03
2018-11-02T05:04:36.452Z,95.32
2018-11-02T05:05:36.438Z,95.22
2018-11-02T05:06:36.431Z,95.12
2018-11-02T05:07:36.428Z,95.03
2018-11-02T05:08:36.422Z,95.22
2018-11-02T05:09:36.409Z,95.51
2018-11-02T05:10:36.399Z,94.84
2018-11-02T05:11:36.597Z,94.65
2018-11-02T05:12:36.384Z,95.03
2018-11-02T05:13:36.378Z,95.03
2018-11-02T05:14:36.370Z,95.22
2018-11-02T05:15:36.365Z,95.41
2018-11-02T05:16:36.354Z,95.51
2018-11-02T05:17:36.342Z,94.93
2018-11-02T05:18:36.333Z,95.12
2018-11-02T05:19:36.326Z,94.84
2018-11-02T05:20:36.318Z,95.41
2018-11-02T05:21:36.313Z,95.41
2018-11-02T05:22:36.305Z,95.22
2018-11-02T05:23:36.299Z,95.32
2018-11-02T05:24:36.285Z,95.03
2018-11-02T05:25:36.305Z,94.93
2018-11-02T05:26:36.274Z,94.93
2018-11-02T05:27:36.266Z,95.03
2018-11-02T05:28:36.256Z,95.12
2018-11-02T05:29:36.244Z,95.32
2018-11-02T05:30:36.242Z,94.84
2018-11-02T05:31:36.227Z,94.74
2018-11-02T05:32:36.219Z,95.51
2018-11-02T05:33:36.215Z,95.03
2018-11-02T05:34:36.210Z,95.32
2018-11-02T05:35:36.201Z,95.41
2018-11-02T05:36:36.192Z,95.22
2018-11-02T05:37:36.180Z,94.46
2018-11-02T05:38:36.172Z,94.27
2018-11-02T05:39:36.266Z,94.17
2018-11-02T05:40:36.159Z,94.37
2018-11-02T05:41:36.147Z,94.46
2018-11-02T05:42:36.161Z,94.65
2018-11-02T05:43:36.131Z,94.37
2018-11-02T05:44:36.123Z,94.17
2018-11-02T05:45:36.120Z,94.17
2018-11-02T05:46:36.111Z,94.65
2018-11-02T05:47:36.104Z,94.56
2018-11-02T05:48:36.096Z,94.27
2018-11-02T05:49:36.084Z,94.74
2018-11-02T05:50:36.076Z,94.37
2018-11-02T05:51:36.069Z,94.17
2018-11-02T05:52:36.060Z,94.08
2018-11-02T05:53:36.057Z,94.37
2018-11-02T05:54:36.049Z,94.56
2018-11-02T05:55:36.036Z,94.46
2018-11-02T05:56:36.028Z,94.46
2018-11-02T05:57:36.025Z,94.17
2018-11-02T05:58:36.016Z,94.46
2018-11-02T05:59:36.010Z,94.37
2018-11-02T06:00:36.001Z,95.12
2018-11-02T06:01:36.093Z,94.74
2018-11-02T06:02:35.980Z,94.65
2018-11-02T06:03:35.972Z,94.37
2018-11-02T06:04:35.965Z,94.74
2018-11-02T06:05:35.961Z,94.17
2018-11-02T06:06:36.016Z,94.17
2018-11-02T06:07:35.994Z,94.84
2018-11-02T06:08:35.955Z,94.84
2018-11-02T06:09:35.927Z,94.56
2018-11-02T06:10:35.917Z,94.56
2018-11-02T06:11:35.914Z,94.17
2018-11-02T06:12:35.907Z,94.46
2018-11-02T06:13:35.949Z,95.61
2018-11-02T06:14:35.886Z,94.46
2018-11-02T06:15:35.881Z,94.65
2018-11-02T06:16:35.892Z,94.56
2018-11-02T06:17:35.867Z,94.65
2018-11-02T06:18:35.860Z,94.56
2018-11-02T06:19:35.852Z,94.46
2018-11-02T06:20:35.846Z,94.56
2018-11-02T06:21:35.831Z,95.32
2018-11-02T06:22:35.823Z,94.74
2018-11-02T06:23:35.818Z,94.74
2018-11-02T06:24:35.810Z,95.22
2018-11-02T06:25:35.824Z,94.84
2018-11-02T06:26:35.798Z,94.84
2018-11-02T06:27:35.785Z,94.74
2018-11-02T06:28:35.777Z,95.12
2018-11-02T06:29:35.773Z,95.22
2018-11-02T06:30:35.841Z,95.32
2018-11-02T06:31:35.760Z,94.93
2018-11-02T06:32:35.848Z,94.84
2018-11-02T06:33:35.738Z,95.22
2018-11-02T06:34:35.732Z,94.74
2018-11-02T06:35:35.722Z,95.32
2018-11-02T06:36:35.719Z,94.93
2018-11-02T06:37:35.711Z,95.12
2018-11-02T06:38:35.713Z,94.84
2018-11-02T06:39:35.695Z,95.12
2018-11-02T06:40:35.689Z,95.12
2018-11-02T06:41:35.677Z,94.74
2018-11-02T06:42:35.668Z,94.84
2018-11-02T06:43:35.666Z,94.93
2018-11-02T06:44:35.662Z,94.93
2018-11-02T06:45:35.645Z,94.93
2018-11-02T06:46:35.638Z,94.84
2018-11-02T06:47:35.631Z,95.61
2018-11-02T06:48:35.623Z,95.22
2018-11-02T06:49:35.618Z,94.93
2018-11-02T06:50:35.611Z,95.61
2018-11-02T06:51:35.604Z,95.79
2018-11-02T06:52:35.662Z,95.41
2018-11-02T06:53:35.583Z,95.12
2018-11-02T06:54:35.575Z,95.51
2018-11-02T06:55:35.568Z,95.41
2018-11-02T06:56:35.560Z,95.41
2018-11-02T06:57:35.556Z,95.51
2018-11-02T06:58:35.548Z,94.93
2018-11-02T06:59:35.706Z,95.51
2018-11-02T07:00:35.580Z,94.74
2018-11-02T07:01:35.524Z,95.12
2018-11-02T07:02:35.518Z,95.32
2018-11-02T07:03:35.510Z,95.98
2018-11-02T07:04:35.501Z,95.32
2018-11-02T07:05:35.488Z,95.32
2018-11-02T07:06:35.481Z,95.03
2018-11-02T07:07:35.693Z,95.61
2018-11-02T07:08:35.552Z,95.32
2018-11-02T07:09:35.457Z,95.03
2018-11-02T07:10:35.461Z,95.03
2018-11-02T07:11:35.442Z,95.51
2018-11-02T07:12:35.434Z,95.51
2018-11-02T07:13:35.430Z,95.51
2018-11-02T07:14:35.422Z,94.93
2018-11-02T07:15:35.411Z,94.93
2018-11-02T07:16:35.403Z,95.51
2018-11-02T07:17:35.399Z,94.93
2018-11-02T07:18:35.392Z,94.74
2018-11-02T07:19:35.386Z,94.84
2018-11-02T07:20:35.378Z,94.84
2018-11-02T07:21:35.364Z,95.32
2018-11-02T07:22:35.357Z,95.03
2018-11-02T07:23:35.349Z,94.84
2018-11-02T07:24:35.394Z,94.74
2018-11-02T07:25:35.338Z,95.12
2018-11-02T07:26:35.330Z,94.84
2018-11-02T07:27:35.323Z,95.12
2018-11-02T07:28:35.315Z,95.03
2018-11-02T07:29:35.305Z,95.41
2018-11-02T07:30:35.295Z,95.12
2018-11-02T07:31:35.292Z,95.12
2018-11-02T07:32:35.284Z,95.22
2018-11-02T07:33:35.271Z,94.93
2018-11-02T07:34:35.366Z,95.32
2018-11-02T07:35:35.257Z,95.22
2018-11-02T07:36:35.249Z,95.12
2018-11-02T07:37:35.265Z,95.03
2018-11-02T07:38:35.240Z,94.84
2018-11-02T07:39:35.232Z,95.03
2018-11-02T07:40:35.223Z,94.93
2018-11-02T07:41:35.210Z,95.03
2018-11-02T07:42:35.202Z,95.22
2018-11-02T07:43:35.193Z,95.03
2018-11-02T07:44:35.186Z,95.03
2018-11-02T07:45:35.212Z,95.37
2018-11-02T07:46:35.174Z,94.60
2018-11-02T07:47:35.242Z,94.79
2018-11-02T07:48:35.157Z,94.46
2018-11-02T07:49:35.267Z,92.88
2018-11-02T07:50:35.145Z,91.35
2018-11-02T07:51:35.140Z,90.25
2018-11-02T07:52:35.153Z,89.82
2018-11-02T07:53:35.121Z,89.25
2018-11-02T07:54:35.114Z,89.49
2018-11-02T07:55:35.110Z,89.39
2018-11-02T07:56:35.103Z,89.97
2018-11-02T07:57:35.106Z,90.45
2018-11-02T07:58:35.094Z,90.64
2018-11-02T07:59:35.089Z,91.26
2018-11-02T08:00:35.083Z,91.55
2018-11-02T08:01:35.071Z,90.69
2018-11-02T08:02:35.065Z,90.78
2018-11-02T08:03:35.069Z,91.07
2018-11-02T08:04:35.059Z,90.97
2018-11-02T08:05:35.084Z,90.59
2018-11-02T08:06:35.045Z,91.55
2018-11-02T08:07:35.037Z,91.07
2018-11-02T08:08:35.030Z,91.26
2018-11-02T08:09:35.033Z,90.97
2018-11-02T08:10:35.022Z,91.26
2018-11-02T08:11:35.044Z,91.07
2018-11-02T08:12:35.015Z,91.26
2018-11-02T08:13:35.001Z,91.64
2018-11-02T08:14:34.993Z,91.36
2018-11-02T08:15:34.988Z,91.07
2018-11-02T08:16:34.985Z,91.21
2018-11-02T08:17:35.025Z,91.60
2018-11-02T08:18:34.985Z,91.12
2018-11-02T08:19:34.967Z,91.50
2018-11-02T08:20:34.958Z,91.88
2018-11-02T08:21:34.959Z,91.98
2018-11-02T08:22:34.950Z,91.74
2018-11-02T08:23:34.942Z,92.03
2018-11-02T08:24:35.025Z,91.74
2018-11-02T08:25:34.926Z,91.64
2018-11-02T08:26:34.919Z,92.12
2018-11-02T08:27:34.913Z,92.50
2018-11-02T08:28:34.906Z,92.69
2018-11-02T08:29:34.903Z,93.08
2018-11-02T08:30:34.898Z,92.69
2018-11-02T08:31:34.892Z,92.88
2018-11-02T08:32:34.886Z,92.79
2018-11-02T08:33:34.873Z,93.17
2018-11-02T08:34:34.865Z,92.98
2018-11-02T08:35:34.865Z,93.17
2018-11-02T08:36:34.858Z,93.36
2018-11-02T08:37:34.846Z,93.60
2018-11-02T08:38:34.839Z,93.60
2018-11-02T08:39:34.833Z,92.17
2018-11-02T08:40:34.825Z,92.46
2018-11-02T08:41:34.823Z,92.46
2018-11-02T08:42:34.815Z,92.36
2018-11-02T08:43:34.810Z,92.46
2018-11-02T08:44:34.804Z,91.50
2018-11-02T08:45:34.791Z,91.50
2018-11-02T08:46:34.873Z,91.78
2018-11-02T08:47:34.777Z,91.69
2018-11-02T08:48:34.771Z,92.17
2018-11-02T08:49:34.769Z,92.17
2018-11-02T08:50:34.763Z,91.41
2018-11-02T08:51:34.751Z,91.83
2018-11-02T08:52:34.745Z,92.55
2018-11-02T08:53:34.743Z,91.30
2018-11-02T08:54:34.736Z,89.53
2018-11-02T08:55:34.729Z,88.04
2018-11-02T08:56:34.724Z,86.61
2018-11-02T08:57:34.814Z,85.75
2018-11-02T08:58:34.862Z,85.46
2018-11-02T08:59:34.812Z,84.31
2018-11-02T09:00:34.697Z,84.27
2018-11-02T09:01:34.695Z,84.55
2018-11-02T09:02:34.691Z,84.99
2018-11-02T09:03:34.686Z,85.47
2018-11-02T09:04:34.681Z,85.66
2018-11-02T09:05:34.669Z,86.52
2018-11-02T09:06:34.667Z,86.43
2018-11-02T09:07:34.665Z,85.85
2018-11-02T09:08:34.661Z,86.85
2018-11-02T09:09:34.650Z,86.70
2018-11-02T09:10:34.646Z,84.64
2018-11-02T09:11:34.641Z,83.58
2018-11-02T09:12:34.636Z,81.02
2018-11-02T09:13:34.636Z,79.71
2018-11-02T09:14:34.631Z,76.39
2018-11-02T09:15:34.629Z,73.86
2018-11-02T09:16:34.625Z,72.01
2018-11-02T09:17:34.618Z,69.25
2018-11-02T09:18:34.646Z,68.42
2018-11-02T09:19:34.613Z,66.52
2018-11-02T09:20:34.611Z,65.17
2018-11-02T09:21:34.640Z,63.76
2018-11-02T09:22:34.614Z,62.54
2018-11-02T09:23:34.609Z,61.67
2018-11-02T09:24:34.607Z,59.96
2018-11-02T09:25:34.609Z,59.48
2018-11-02T09:26:34.609Z,59.74
2018-11-02T09:27:34.741Z,59.74
2018-11-02T09:28:34.611Z,59.38
2018-11-02T09:29:34.609Z,59.34
2018-11-02T09:30:34.610Z,58.18
2018-11-02T09:31:34.611Z,57.03
2018-11-02T09:32:34.613Z,56.50
2018-11-02T09:33:34.619Z,55.94
2018-11-02T09:34:34.622Z,54.23
2018-11-02T09:35:34.623Z,53.26
2018-11-02T09:36:34.625Z,52.03
2018-11-02T09:37:34.632Z,52.20
2018-11-02T09:38:34.627Z,51.76
2018-11-02T09:39:34.634Z,52.08
2018-11-02T09:40:34.780Z,52.05
2018-11-02T09:41:34.636Z,51.88
2018-11-02T09:42:34.665Z,52.58
2018-11-02T09:43:34.650Z,51.06
2018-11-02T09:44:34.649Z,51.57
2018-11-02T09:45:34.658Z,50.60
2018-11-02T09:46:34.661Z,50.14
2018-11-02T09:47:34.665Z,49.00
2018-11-02T09:48:34.668Z,50.82
2018-11-02T09:49:34.668Z,51.03
2018-11-02T09:50:34.673Z,51.87
2018-11-02T09:51:34.777Z,53.27
2018-11-02T09:52:34.681Z,54.53
2018-11-02T09:53:34.689Z,54.77
2018-11-02T09:54:34.692Z,54.41
2018-11-02T09:55:34.692Z,54.32
2018-11-02T09:56:34.698Z,54.22
2018-11-02T09:57:34.745Z,53.77
2018-11-02T09:58:34.710Z,53.86
2018-11-02T09:59:34.714Z,53.69
2018-11-02T10:00:34.721Z,52.92
2018-11-02T10:01:34.715Z,52.05
2018-11-02T10:02:34.719Z,52.44
2018-11-02T10:03:34.725Z,51.98
2018-11-02T10:04:34.729Z,51.59
2018-11-02T10:05:34.736Z,50.98
2018-11-02T10:06:34.739Z,51.39
2018-11-02T10:07:34.748Z,52.55
2018-11-02T10:08:34.749Z,52.22
2018-11-02T10:09:34.748Z,52.14
2018-11-02T10:10:34.750Z,51.78
2018-11-02T10:11:34.758Z,51.35
2018-11-02T10:12:34.763Z,51.35
2018-11-02T10:13:34.763Z,51.59
2018-11-02T10:14:34.766Z,51.32
2018-11-02T10:15:34.771Z,49.99
2018-11-02T10:16:34.777Z,49.17
2018-11-02T10:17:34.783Z,49.80
2018-11-02T10:18:34.787Z,50.55
2018-11-02T10:19:34.793Z,51.35
2018-11-02T10:20:34.799Z,50.98
2018-11-02T10:21:34.794Z,50.70
2018-11-02T10:22:34.797Z,50.43
2018-11-02T10:23:34.830Z,49.29
2018-11-02T10:24:34.806Z,48.81
2018-11-02T10:25:34.816Z,48.35
2018-11-02T10:26:34.821Z,48.22
2018-11-02T10:27:34.828Z,48.42
2018-11-02T10:28:34.823Z,49.05
2018-11-02T10:29:34.832Z,48.97
2018-11-02T10:30:34.837Z,50.93
2018-11-02T10:31:34.840Z,51.47
2018-11-02T10:32:34.845Z,50.62
2018-11-02T10:33:34.843Z,50.26
2018-11-02T10:34:34.848Z,49.32
2018-11-02T10:35:34.921Z,48.25
2018-11-02T10:36:34.856Z,47.74
2018-11-02T10:37:34.865Z,47.86
2018-11-02T10:38:34.868Z,47.09
2018-11-02T10:39:34.944Z,46.99
2018-11-02T10:40:34.877Z,47.30
2018-11-02T10:41:34.877Z,46.62
2018-11-02T10:42:34.880Z,46.14
2018-11-02T10:43:34.894Z,45.07
2018-11-02T10:44:35.015Z,44.51
2018-11-02T10:45:34.898Z,43.62
2018-11-02T10:46:34.899Z,43.23
2018-11-02T10:47:34.905Z,45.10
2018-11-02T10:48:34.909Z,44.64
2018-11-02T10:49:34.917Z,44.15
2018-11-02T10:50:34.922Z,43.57
2018-11-02T10:51:34.928Z,43.95
2018-11-02T10:52:34.932Z,43.86
2018-11-02T10:53:34.931Z,43.86
2018-11-02T10:54:35.111Z,43.49
2018-11-02T10:55:34.943Z,43.23
2018-11-02T10:56:34.980Z,43.43
2018-11-02T10:57:34.957Z,43.50
2018-11-02T10:58:34.962Z,43.89
2018-11-02T10:59:34.961Z,44.27
2018-11-02T11:00:35.006Z,43.89
2018-11-02T11:01:35.015Z,44.98
2018-11-02T11:02:34.981Z,44.88
2018-11-02T11:03:34.985Z,45.03
2018-11-02T11:04:34.990Z,45.71
2018-11-02T11:05:35.090Z,46.02
2018-11-02T11:06:34.995Z,45.42
2018-11-02T11:07:35.008Z,45.32
2018-11-02T11:08:35.005Z,45.42
2018-11-02T11:09:35.013Z,45.20
2018-11-02T11:10:35.019Z,46.05
2018-11-02T11:11:35.176Z,46.20
2018-11-02T11:12:35.204Z,47.72
2018-11-02T11:13:35.382Z,48.08
2018-11-02T11:14:35.031Z,48.83
2018-11-02T11:15:35.041Z,49.46
2018-11-02T11:16:35.048Z,50.71
2018-11-02T11:17:35.042Z,52.04
2018-11-02T11:18:35.048Z,52.78
2018-11-02T11:19:35.049Z,52.75
2018-11-02T11:20:35.052Z,54.27
2018-11-02T11:21:35.241Z,55.30
2018-11-02T11:22:35.061Z,57.51
2018-11-02T11:23:35.066Z,57.48
2018-11-02T11:24:35.068Z,58.92
2018-11-02T11:25:35.064Z,59.22
2018-11-02T11:26:35.064Z,59.02
2018-11-02T11:27:35.065Z,59.41
2018-11-02T11:28:35.069Z,59.09
2018-11-02T11:29:35.184Z,58.61
2018-11-02T11:30:35.077Z,59.57
2018-11-02T11:31:35.070Z,60.05
2018-11-02T11:32:35.072Z,59.73
2018-11-02T11:33:35.080Z,60.50
2018-11-02T11:34:35.076Z,60.78
2018-11-02T11:35:35.076Z,61.94
2018-11-02T11:36:35.075Z,62.23
2018-11-02T11:37:35.070Z,61.27
2018-11-02T11:38:35.070Z,61.75
2018-11-02T11:39:35.140Z,61.84
2018-11-02T11:40:35.070Z,62.29
2018-11-02T11:41:35.073Z,62.29
2018-11-02T11:42:35.073Z,62.19
2018-11-02T11:43:35.073Z,62.48
2018-11-02T11:44:35.075Z,63.16
2018-11-02T11:45:35.072Z,62.48
2018-11-02T11:46:35.064Z,62.65
2018-11-02T11:47:35.068Z,63.32
2018-11-02T11:48:35.144Z,63.99
2018-11-02T11:49:35.060Z,64.56
2018-11-02T11:50:35.060Z,64.18
2018-11-02T11:51:35.057Z,64.18
2018-11-02T11:52:35.055Z,64.66
2018-11-02T11:53:35.058Z,64.66
2018-11-02T11:54:35.145Z,63.89
2018-11-02T11:55:35.058Z,63.79
2018-11-02T11:56:35.052Z,63.32
2018-11-02T11:57:35.045Z,63.89
2018-11-02T11:58:35.043Z,63.51
2018-11-02T11:59:35.042Z,63.79
2018-11-02T12:00:35.040Z,63.79
2018-11-02T12:01:35.042Z,63.79
2018-11-02T12:02:35.040Z,63.86
2018-11-02T12:03:35.034Z,63.86
2018-11-02T12:04:35.151Z,65.49
2018-11-02T12:05:35.033Z,65.01
2018-11-02T12:06:35.031Z,65.01
2018-11-02T12:07:35.042Z,65.36
2018-11-02T12:08:35.026Z,66.22
2018-11-02T12:09:35.022Z,66.74
2018-11-02T12:10:35.198Z,67.09
2018-11-02T12:11:35.014Z,66.64
2018-11-02T12:12:35.012Z,66.64
2018-11-02T12:13:35.013Z,65.49
2018-11-02T12:14:35.010Z,65.01
2018-11-02T12:15:35.009Z,63.86
2018-11-02T12:16:35.007Z,63.76
2018-11-02T12:17:34.998Z,63.57
2018-11-02T12:18:34.997Z,63.76
2018-11-02T12:19:34.999Z,64.05
2018-11-02T12:20:34.997Z,63.86
2018-11-02T12:21:35.012Z,63.83
2018-11-02T12:22:34.986Z,64.82
2018-11-02T12:23:34.982Z,64.59
2018-11-02T12:24:34.981Z,65.17
2018-11-02T12:25:34.981Z,65.08
2018-11-02T12:26:34.979Z,65.17
2018-11-02T12:27:34.976Z,65.46
2018-11-02T12:28:35.031Z,64.89
2018-11-02T12:29:34.965Z,64.79
2018-11-02T12:30:34.970Z,64.76
2018-11-02T12:31:34.959Z,65.71
2018-11-02T12:32:34.959Z,65.65
2018-11-02T12:33:34.956Z,66.48
2018-11-02T12:34:34.955Z,66.86
2018-11-02T12:35:34.947Z,66.51
2018-11-02T12:36:34.944Z,66.61
2018-11-02T12:37:34.944Z,66.99
2018-11-02T12:38:34.942Z,66.19
2018-11-02T12:39:34.940Z,65.33
2018-11-02T12:40:35.001Z,65.36
2018-11-02T12:41:34.975Z,65.52
2018-11-02T12:42:34.924Z,66.48
2018-11-02T12:43:34.998Z,67.25
2018-11-02T12:44:34.917Z,66.48
2018-11-02T12:45:34.918Z,66.77
2018-11-02T12:46:34.915Z,66.58
2018-11-02T12:47:34.911Z,66.77
2018-11-02T12:48:35.083Z,66.09
2018-11-02T12:49:35.163Z,66.96
2018-11-02T12:50:35.003Z,66.96
2018-11-02T12:51:34.897Z,66.48
2018-11-02T12:52:34.895Z,65.71